createdAt,value
2023-04-24T00:01:02.909Z,6.72
2023-04-24T00:03:29.525Z,7.43
2023-04-24T00:05:55.916Z,6.75
2023-04-24T00:08:23.023Z,8.57
2023-04-24T00:10:48.748Z,7.72
2023-04-24T00:13:14.563Z,5.88
2023-04-24T00:15:40.469Z,7.30
2023-04-24T00:18:06.315Z,6.07
2023-04-24T00:20:35.891Z,7.38
2023-04-24T00:23:01.643Z,6.55
2023-04-24T00:25:27.454Z,8.05
2023-04-24T00:27:53.194Z,6.25
2023-04-24T00:30:18.967Z,6.35
2023-04-24T00:32:44.730Z,6.95
2023-04-24T00:35:10.875Z,7.20
2023-04-24T00:37:36.610Z,7.55
2023-04-24T00:40:03.115Z,8.38
2023-04-24T00:42:29.070Z,5.82
2023-04-24T00:44:55.232Z,7.13
2023-04-24T00:47:22.250Z,7.90
2023-04-24T00:49:48.036Z,6.32
2023-04-24T00:52:17.994Z,5.53
2023-04-24T00:54:44.992Z,6.50
2023-04-24T00:57:10.782Z,6.43
2023-04-24T00:59:36.980Z,5.82
2023-04-24T01:02:02.884Z,7.28
2023-04-24T01:04:29.049Z,5.57
2023-04-24T01:06:55.130Z,7.50
2023-04-24T01:09:21.958Z,7.80
2023-04-24T01:11:47.682Z,6.90
2023-04-24T01:14:13.702Z,5.68
2023-04-24T01:16:39.453Z,7.88
2023-04-24T01:19:06.600Z,6.38
2023-04-24T01:21:34.938Z,6.07
2023-04-24T01:24:00.656Z,8.00
2023-04-24T01:26:26.409Z,6.47
2023-04-24T01:28:52.946Z,7.60
2023-04-24T01:31:18.850Z,6.15
2023-04-24T01:33:44.725Z,5.90
2023-04-24T01:36:11.258Z,6.20
2023-04-24T01:38:37.150Z,7.90
2023-04-24T01:41:03.017Z,6.55
2023-04-24T01:43:29.013Z,5.82
2023-04-24T01:45:54.926Z,9.63
2023-04-24T01:48:20.680Z,9.82
2023-04-24T01:50:46.410Z,5.82
2023-04-24T01:53:12.578Z,10.52
2023-04-24T01:55:38.573Z,6.63
2023-04-24T01:58:04.330Z,7.63
2023-04-24T02:00:30.139Z,7.57
2023-04-24T02:02:56.007Z,7.53
2023-04-24T02:05:21.891Z,8.50
2023-04-24T02:07:47.610Z,8.70
2023-04-24T02:10:13.391Z,6.18
2023-04-24T02:12:39.204Z,9.68
2023-04-24T02:15:05.654Z,8.63
2023-04-24T02:17:31.844Z,7.75
2023-04-24T02:19:57.619Z,7.03
2023-04-24T02:22:23.364Z,7.00
2023-04-24T02:24:49.077Z,8.07
2023-04-24T02:27:15.371Z,6.90
2023-04-24T02:29:41.526Z,7.93
2023-04-24T02:32:07.578Z,7.00
2023-04-24T02:34:33.358Z,9.30
2023-04-24T02:36:59.079Z,6.88
2023-04-24T02:39:24.809Z,6.47
2023-04-24T02:41:50.530Z,7.43
2023-04-24T02:44:17.576Z,8.82
2023-04-24T02:46:43.678Z,8.50
2023-04-24T02:49:09.432Z,10.95
2023-04-24T02:51:35.330Z,8.95
2023-04-24T02:54:01.066Z,9.20
2023-04-24T02:56:26.828Z,9.10
2023-04-24T02:58:52.531Z,8.60
2023-04-24T03:01:18.347Z,5.95
2023-04-24T03:03:44.316Z,5.80
2023-04-24T03:06:10.138Z,17.08
2023-04-24T03:08:35.929Z,8.70
2023-04-24T03:11:01.648Z,8.18
2023-04-24T03:13:27.368Z,5.85
2023-04-24T03:15:54.424Z,10.77
2023-04-24T03:18:20.233Z,7.07
2023-04-24T03:20:46.748Z,6.82
2023-04-24T03:23:12.543Z,8.70
2023-04-24T03:25:38.273Z,6.70
2023-04-24T03:28:03.980Z,9.32
2023-04-24T03:30:29.745Z,7.78
2023-04-24T03:32:55.511Z,7.55
2023-04-24T03:35:22.350Z,8.48
2023-04-24T03:37:48.087Z,6.90
2023-04-24T03:40:13.862Z,7.35
2023-04-24T03:42:39.614Z,7.35
2023-04-24T03:45:05.998Z,8.05
2023-04-24T03:47:31.762Z,14.38
2023-04-24T03:49:57.613Z,14.55
2023-04-24T03:52:23.346Z,7.85
2023-04-24T03:54:49.109Z,6.95
2023-04-24T03:57:14.847Z,6.97
2023-04-24T03:59:40.687Z,6.40
2023-04-24T04:02:06.618Z,6.15
2023-04-24T04:04:32.660Z,10.65
2023-04-24T04:07:01.517Z,5.80
2023-04-24T04:09:27.424Z,8.93
2023-04-24T04:11:53.159Z,7.82
2023-04-24T04:14:19.101Z,7.32
2023-04-24T04:16:44.901Z,8.65
2023-04-24T04:19:10.764Z,11.20
2023-04-24T04:21:36.531Z,12.23
2023-04-24T04:24:02.311Z,9.07
2023-04-24T04:26:28.072Z,10.77
2023-04-24T04:28:53.804Z,10.70
2023-04-24T04:31:20.234Z,8.25
2023-04-24T04:33:46.024Z,9.05
2023-04-24T04:36:12.444Z,9.05
2023-04-24T04:38:38.291Z,12.10
2023-04-24T04:41:04.180Z,10.35
2023-04-24T04:43:31.213Z,6.95
2023-04-24T04:45:58.310Z,5.93
2023-04-24T04:48:24.080Z,5.47
2023-04-24T04:50:49.988Z,4.85
2023-04-24T04:53:15.954Z,5.25
2023-04-24T04:55:41.732Z,4.82
2023-04-24T04:58:07.517Z,3.95
2023-04-24T05:00:36.311Z,6.55
2023-04-24T05:03:16.670Z,4.78
2023-04-24T05:05:46.340Z,8.40
2023-04-24T05:08:25.930Z,4.35
2023-04-24T05:10:52.845Z,5.05
2023-04-24T05:13:22.865Z,3.80
2023-04-24T05:16:10.383Z,4.90
2023-04-24T05:18:36.187Z,5.32
2023-04-24T05:21:02.145Z,3.58
2023-04-24T05:23:28.080Z,3.40
2023-04-24T05:25:54.065Z,3.42
2023-04-24T05:28:20.380Z,6.55
2023-04-24T05:30:47.121Z,5.65
2023-04-24T05:33:14.630Z,3.03
2023-04-24T05:35:40.976Z,4.10
2023-04-24T05:38:06.920Z,2.45
2023-04-24T05:40:32.845Z,7.60
2023-04-24T05:42:58.752Z,2.90
2023-04-24T05:45:37.362Z,1.58
2023-04-24T05:48:04.348Z,3.90
2023-04-24T05:50:30.586Z,5.30
2023-04-24T05:52:58.547Z,3.58
2023-04-24T05:55:27.304Z,2.28
2023-04-24T05:57:53.257Z,4.07
2023-04-24T06:00:20.283Z,3.90
2023-04-24T06:02:47.367Z,5.95
2023-04-24T06:05:13.556Z,2.33
2023-04-24T06:07:39.520Z,2.90
2023-04-24T06:10:05.628Z,1.70
2023-04-24T06:12:31.952Z,4.88
2023-04-24T06:15:01.305Z,5.82
2023-04-24T06:17:27.216Z,6.45
2023-04-24T06:19:53.296Z,4.32
2023-04-24T06:22:19.337Z,3.70
2023-04-24T06:24:45.237Z,1.63
2023-04-24T06:27:11.165Z,4.10
2023-04-24T06:29:37.751Z,7.57
2023-04-24T06:32:03.829Z,3.15
2023-04-24T06:34:31.219Z,1.67
2023-04-24T06:36:57.276Z,3.00
2023-04-24T06:39:23.324Z,1.67
2023-04-24T06:41:50.109Z,1.83
2023-04-24T06:44:16.059Z,1.75
2023-04-24T06:46:42.158Z,1.80
2023-04-24T06:49:08.360Z,3.90
2023-04-24T06:51:34.349Z,2.67
2023-04-24T06:54:00.306Z,5.18
2023-04-24T06:56:26.671Z,1.48
2023-04-24T06:58:52.732Z,2.45
2023-04-24T07:01:18.603Z,2.55
2023-04-24T07:03:44.632Z,1.48
2023-04-24T07:06:11.696Z,1.50
2023-04-24T07:08:38.225Z,3.22
2023-04-24T07:11:04.543Z,1.13
2023-04-24T07:13:30.425Z,1.38
2023-04-24T07:15:56.725Z,1.10
2023-04-24T07:18:22.997Z,4.65
2023-04-24T07:20:50.558Z,3.08
2023-04-24T07:23:16.967Z,1.88
2023-04-24T07:25:43.154Z,3.30
2023-04-24T07:28:09.113Z,4.70
2023-04-24T07:30:35.030Z,1.58
2023-04-24T07:33:01.488Z,2.13
2023-04-24T07:35:27.415Z,1.85
2023-04-24T07:37:53.800Z,1.45
2023-04-24T07:40:20.194Z,3.35
2023-04-24T07:42:46.414Z,3.10
2023-04-24T07:45:12.318Z,3.13
2023-04-24T07:47:40.052Z,1.88
2023-04-24T07:50:06.249Z,4.28
2023-04-24T07:52:32.242Z,3.10
2023-04-24T07:55:02.430Z,0.82
2023-04-24T07:57:28.721Z,2.72
2023-04-24T07:59:57.631Z,2.05
2023-04-24T08:02:27.284Z,1.27
2023-04-24T08:04:57.371Z,1.40
2023-04-24T08:07:24.423Z,2.88
2023-04-24T08:09:50.509Z,0.77
2023-04-24T08:12:16.363Z,3.40
2023-04-24T08:14:42.649Z,0.88
2023-04-24T08:17:09.294Z,4.13
2023-04-24T08:19:35.473Z,2.53
2023-04-24T08:22:01.374Z,2.08
2023-04-24T08:24:27.304Z,2.20
2023-04-24T08:26:54.924Z,2.00
2023-04-24T08:29:21.382Z,2.92
2023-04-24T08:31:48.419Z,4.10
2023-04-24T08:34:14.730Z,2.17
2023-04-24T08:36:46.959Z,2.03
2023-04-24T08:39:14.196Z,2.92
2023-04-24T08:41:43.478Z,2.15
2023-04-24T08:44:10.977Z,2.33
2023-04-24T08:49:48.572Z,1.58
2023-04-24T08:52:15.280Z,4.55
2023-04-24T08:54:45.005Z,1.95
2023-04-24T08:57:12.353Z,1.25
2023-04-24T08:59:42.215Z,2.80
2023-04-24T09:02:11.319Z,1.73
2023-04-24T09:04:38.033Z,1.40
2023-04-24T09:07:06.476Z,0.93
2023-04-24T09:09:34.195Z,5.00
2023-04-24T09:12:00.873Z,2.00
2023-04-24T09:14:43.282Z,1.27
2023-04-24T09:17:09.435Z,1.02
2023-04-24T09:19:35.814Z,3.88
2023-04-24T09:22:07.016Z,1.95
2023-04-24T09:24:33.581Z,1.02
2023-04-24T09:27:02.838Z,1.30
2023-04-24T09:29:33.976Z,1.10
2023-04-24T09:32:01.285Z,1.58
2023-04-24T09:34:27.926Z,3.50
2023-04-24T09:36:54.442Z,1.10
2023-04-24T09:39:20.904Z,2.72
2023-04-24T09:41:52.405Z,1.73
2023-04-24T09:45:01.462Z,2.08
2023-04-24T09:47:38.347Z,1.20
2023-04-24T09:50:14.953Z,14.18
2023-04-24T09:52:43.010Z,1.85
2023-04-24T09:55:17.104Z,1.25
2023-04-24T09:57:51.167Z,4.25
2023-04-24T10:00:26.367Z,2.15
2023-04-24T10:03:02.211Z,0.88
2023-04-24T10:05:30.550Z,2.05
2023-04-24T10:07:57.641Z,0.50
2023-04-24T10:10:23.911Z,4.47
2023-04-24T10:12:52.840Z,1.48
2023-04-24T10:15:34.736Z,1.85
2023-04-24T10:18:01.759Z,1.33
2023-04-24T10:20:31.276Z,4.57
2023-04-24T10:22:58.479Z,4.15
2023-04-24T10:25:26.226Z,4.50
2023-04-24T10:27:54.109Z,1.83
2023-04-24T10:30:21.105Z,1.25
2023-04-24T10:32:47.931Z,1.55
2023-04-24T10:35:16.840Z,1.00
2023-04-24T10:37:45.374Z,2.30
2023-04-24T10:40:13.464Z,2.60
2023-04-24T10:42:45.906Z,2.38
2023-04-24T10:45:30.906Z,2.25
2023-04-24T10:48:01.718Z,2.63
2023-04-24T10:50:46.545Z,1.77
2023-04-24T10:53:14.425Z,1.48
2023-04-24T10:56:05.558Z,7.03
2023-04-24T10:58:44.947Z,2.65
2023-04-24T11:01:26.812Z,2.33
2023-04-24T11:03:58.661Z,1.85
2023-04-24T11:06:32.562Z,3.42
2023-04-24T11:09:03.669Z,1.92
2023-04-24T11:11:34.296Z,3.45
2023-04-24T11:16:50.625Z,2.22
2023-04-24T11:19:20.567Z,2.60
2023-04-24T11:21:56.161Z,0.30
2023-04-24T11:24:26.927Z,1.90
2023-04-24T11:27:08.455Z,2.42
2023-04-24T11:29:48.479Z,1.85
2023-04-24T11:32:26.136Z,3.30
2023-04-24T11:34:57.739Z,4.40
2023-04-24T11:37:25.599Z,2.72
2023-04-24T11:40:03.869Z,3.20
2023-04-24T11:42:34.618Z,1.35
2023-04-24T11:47:54.147Z,0.93
2023-04-24T11:50:22.758Z,1.75
2023-04-24T11:52:50.107Z,1.00
2023-04-24T11:55:16.769Z,0.75
2023-04-24T11:57:45.276Z,1.55
2023-04-24T12:00:18.128Z,3.42
2023-04-24T12:02:44.470Z,2.65
2023-04-24T12:05:20.360Z,0.63
2023-04-24T12:07:46.978Z,1.33
2023-04-24T12:10:13.334Z,0.93
2023-04-24T12:12:39.818Z,2.25
2023-04-24T12:15:36.938Z,2.75
2023-04-24T12:18:04.642Z,2.10
2023-04-24T12:20:31.867Z,0.70
2023-04-24T12:23:01.838Z,0.57
2023-04-24T12:25:35.083Z,0.95
2023-04-24T12:28:04.070Z,1.80
2023-04-24T12:30:30.991Z,2.90
2023-04-24T12:33:03.631Z,5.85
2023-04-24T12:35:32.073Z,4.15
2023-04-24T12:38:11.120Z,1.73
2023-04-24T12:40:47.036Z,3.63
2023-04-24T12:43:13.952Z,2.58
2023-04-24T12:46:09.370Z,1.02
2023-04-24T12:48:35.587Z,2.88
2023-04-24T12:51:02.155Z,1.20
2023-04-24T12:53:30.563Z,0.95
2023-04-24T12:55:58.006Z,2.92
2023-04-24T12:58:24.614Z,1.13
2023-04-24T13:00:51.426Z,1.20
2023-04-24T13:03:19.152Z,1.23
2023-04-24T13:05:45.671Z,2.38
2023-04-24T13:08:14.017Z,1.13
2023-04-24T13:10:41.203Z,3.30
2023-04-24T13:13:07.758Z,2.88
2023-04-24T13:15:33.811Z,0.30
2023-04-24T13:17:59.913Z,3.42
2023-04-24T13:20:31.436Z,0.80
2023-04-24T13:22:57.712Z,3.88
2023-04-24T13:25:24.973Z,1.83
2023-04-24T13:27:51.225Z,1.40
2023-04-24T13:30:17.315Z,2.63
2023-04-24T13:32:43.256Z,1.08
2023-04-24T13:35:09.521Z,0.40
2023-04-24T13:37:35.695Z,0.85
2023-04-24T13:40:01.568Z,0.73
2023-04-24T13:42:27.992Z,1.70
2023-04-24T13:45:02.230Z,2.63
2023-04-24T13:47:30.068Z,1.63
2023-04-24T13:49:57.086Z,2.20
2023-04-24T13:52:23.054Z,1.15
2023-04-24T13:54:48.912Z,0.65
2023-04-24T13:57:15.363Z,4.25
2023-04-24T13:59:41.316Z,1.55
2023-04-24T14:02:07.290Z,0.70
2023-04-24T14:04:34.138Z,2.60
2023-04-24T14:07:01.778Z,1.80
2023-04-24T14:09:27.646Z,1.17
2023-04-24T14:11:53.634Z,2.72
2023-04-24T14:15:00.830Z,0.85
2023-04-24T14:17:27.156Z,12.30
2023-04-24T14:19:56.616Z,1.75
2023-04-24T14:22:23.455Z,1.70
2023-04-24T14:24:49.299Z,1.00
2023-04-24T14:27:15.242Z,2.78
2023-04-24T14:29:41.552Z,1.73
2023-04-24T14:32:09.463Z,0.73
2023-04-24T14:34:35.432Z,1.85
2023-04-24T14:37:01.307Z,2.55
2023-04-24T14:39:27.475Z,2.75
2023-04-24T14:41:53.426Z,2.40
2023-04-24T14:44:20.526Z,1.35
2023-04-24T14:46:46.560Z,4.00
2023-04-24T14:49:13.681Z,3.35
2023-04-24T14:51:39.598Z,2.60
2023-04-24T14:54:05.494Z,2.72
2023-04-24T14:56:31.556Z,3.25
2023-04-24T14:58:57.826Z,2.83
2023-04-24T15:01:24.550Z,1.50
2023-04-24T15:03:50.682Z,0.90
2023-04-24T15:06:16.790Z,1.95
2023-04-24T15:08:42.845Z,2.70
2023-04-24T15:11:10.312Z,3.13
2023-04-24T15:13:36.721Z,3.40
2023-04-24T15:16:02.604Z,2.15
2023-04-24T15:18:30.048Z,0.60
2023-04-24T15:20:57.096Z,4.50
2023-04-24T15:23:23.049Z,1.35
2023-04-24T15:25:49.373Z,0.70
2023-04-24T15:28:16.497Z,1.20
2023-04-24T15:30:42.581Z,2.63
2023-04-24T15:33:08.429Z,1.45
2023-04-24T15:35:34.666Z,1.17
2023-04-24T15:38:01.404Z,3.15
2023-04-24T15:40:27.418Z,1.63
2023-04-24T15:42:53.437Z,1.77
2023-04-24T15:45:19.743Z,0.82
2023-04-24T15:47:46.994Z,4.97
2023-04-24T15:50:14.917Z,1.13
2023-04-24T15:52:41.609Z,1.40
2023-04-24T15:55:07.694Z,4.65
2023-04-24T15:57:33.853Z,1.95
2023-04-24T16:00:00.363Z,0.57
2023-04-24T16:02:27.017Z,0.95
2023-04-24T16:04:53.927Z,3.13
2023-04-24T16:07:19.945Z,1.90
2023-04-24T16:09:46.319Z,1.58
2023-04-24T16:12:12.771Z,2.47
2023-04-24T16:14:38.899Z,3.47
2023-04-24T16:17:05.173Z,4.07
2023-04-24T16:19:31.285Z,1.75
2023-04-24T16:21:58.441Z,4.22
2023-04-24T16:24:24.966Z,0.55
2023-04-24T16:26:51.382Z,1.25
2023-04-24T16:29:17.862Z,0.68
2023-04-24T16:31:44.188Z,3.45
2023-04-24T16:34:10.421Z,1.05
2023-04-24T16:36:36.613Z,3.33
2023-04-24T16:39:04.300Z,3.58
2023-04-24T16:41:30.672Z,2.05
2023-04-24T16:43:56.489Z,1.75
2023-04-24T16:46:35.076Z,1.23
2023-04-24T16:49:00.951Z,1.50
2023-04-24T16:51:27.245Z,1.30
2023-04-24T16:53:53.057Z,0.95
2023-04-24T16:56:18.900Z,1.42
2023-04-24T16:58:44.813Z,0.77
2023-04-24T17:01:10.687Z,3.72
2023-04-24T17:03:36.884Z,3.97
2023-04-24T17:06:02.962Z,0.88
2023-04-24T17:08:30.030Z,2.25
2023-04-24T17:10:56.946Z,2.78
2023-04-24T17:13:22.968Z,0.68
2023-04-24T17:15:52.662Z,1.60
2023-04-24T17:18:19.022Z,2.53
2023-04-24T17:20:45.086Z,1.42
2023-04-24T17:23:12.986Z,0.75
2023-04-24T17:25:39.291Z,0.32
2023-04-24T17:28:12.907Z,0.90
2023-04-24T17:30:38.724Z,1.08
2023-04-24T17:33:04.617Z,1.00
2023-04-24T17:35:31.463Z,2.85
2023-04-24T17:37:57.905Z,3.97
2023-04-24T17:40:23.704Z,2.88
2023-04-24T17:42:49.502Z,0.70
2023-04-24T17:45:15.806Z,1.17
2023-04-24T17:47:41.860Z,0.60
2023-04-24T17:50:07.901Z,0.55
2023-04-24T17:52:34.525Z,3.20
2023-04-24T17:55:00.579Z,2.28
2023-04-24T17:57:26.614Z,1.15
2023-04-24T17:59:52.624Z,0.75
2023-04-24T18:02:18.488Z,0.30
2023-04-24T18:04:44.629Z,0.47
2023-04-24T18:07:10.701Z,0.32
2023-04-24T18:09:36.590Z,0.65
2023-04-24T18:12:03.107Z,2.97
2023-04-24T18:14:35.344Z,0.68
2023-04-24T18:17:01.233Z,0.40
2023-04-24T18:19:27.340Z,1.23
2023-04-24T18:21:53.149Z,0.85
2023-04-24T18:24:21.726Z,0.20
2023-04-24T18:26:47.498Z,1.65
2023-04-24T18:29:13.439Z,0.77
2023-04-24T18:31:39.474Z,0.80
2023-04-24T18:34:05.518Z,1.55
2023-04-24T18:36:32.622Z,0.47
2023-04-24T18:38:58.565Z,0.40
2023-04-24T18:41:24.429Z,0.98
2023-04-24T18:43:51.333Z,0.30
2023-04-24T18:46:19.964Z,1.52
2023-04-24T18:48:45.806Z,0.75
2023-04-24T18:51:11.546Z,0.35
2023-04-24T18:53:37.292Z,1.90
2023-04-24T18:56:03.228Z,3.70
2023-04-24T18:58:29.055Z,0.70
2023-04-24T19:00:55.521Z,1.10
2023-04-24T19:03:21.971Z,0.95
2023-04-24T19:05:47.893Z,1.48
2023-04-24T19:08:13.760Z,3.00
2023-04-24T19:10:39.664Z,0.47
2023-04-24T19:13:05.793Z,1.25
2023-04-24T19:15:54.066Z,2.33
2023-04-24T19:18:19.893Z,4.15
2023-04-24T19:20:45.926Z,1.90
2023-04-24T19:23:12.199Z,1.75
2023-04-24T19:25:38.300Z,2.42
2023-04-24T19:28:04.385Z,2.75
2023-04-24T19:30:30.183Z,4.60
2023-04-24T19:32:56.284Z,1.83
2023-04-24T19:35:22.372Z,1.58
2023-04-24T19:37:48.822Z,5.95
2023-04-24T19:40:14.774Z,3.15
2023-04-24T19:42:44.370Z,4.50
2023-04-24T19:45:11.731Z,2.90
2023-04-24T19:47:38.430Z,2.67
2023-04-24T19:50:06.527Z,4.50
2023-04-24T19:52:32.551Z,3.30
2023-04-24T19:54:58.817Z,3.35
2023-04-24T19:57:24.754Z,2.30
2023-04-24T19:59:50.592Z,2.05
2023-04-24T20:02:16.454Z,2.50
2023-04-24T20:04:42.576Z,4.45
2023-04-24T20:07:08.775Z,3.08
2023-04-24T20:09:34.681Z,1.50
2023-04-24T20:12:00.992Z,4.72
2023-04-24T20:14:33.331Z,3.40
2023-04-24T20:16:59.528Z,2.55
2023-04-24T20:19:25.327Z,3.47
2023-04-24T20:21:51.190Z,2.25
2023-04-24T20:24:17.550Z,3.13
2023-04-24T20:26:43.323Z,11.65
2023-04-24T20:29:10.243Z,3.28
2023-04-24T20:31:36.558Z,2.65
2023-04-24T20:34:05.613Z,1.85
2023-04-24T20:36:33.062Z,4.03
2023-04-24T20:38:59.116Z,7.63
2023-04-24T20:41:25.674Z,3.70
2023-04-24T20:43:51.764Z,5.68
2023-04-24T20:46:21.520Z,3.40
2023-04-24T20:48:47.922Z,4.88
2023-04-24T20:51:13.908Z,2.97
2023-04-24T20:53:39.699Z,2.72
2023-04-24T20:56:05.994Z,5.38
2023-04-24T20:58:31.872Z,4.65
2023-04-24T21:00:57.897Z,4.10
2023-04-24T21:03:23.853Z,3.50
2023-04-24T21:05:49.860Z,3.50
2023-04-24T21:08:15.994Z,4.70
2023-04-24T21:10:41.801Z,3.42
2023-04-24T21:13:07.674Z,5.25
2023-04-24T21:15:33.739Z,4.63
2023-04-24T21:18:00.029Z,3.35
2023-04-24T21:20:26.176Z,6.28
2023-04-24T21:22:51.925Z,5.20
2023-04-24T21:25:17.755Z,4.45
2023-04-24T21:27:43.705Z,2.78
2023-04-24T21:30:10.639Z,6.03
2023-04-24T21:32:36.483Z,6.13
2023-04-24T21:35:02.379Z,4.90
2023-04-24T21:37:28.225Z,3.15
2023-04-24T21:39:54.483Z,3.50
2023-04-24T21:42:20.434Z,4.53
2023-04-24T21:44:46.325Z,4.18
2023-04-24T21:47:12.163Z,5.25
2023-04-24T21:49:37.976Z,3.95
2023-04-24T21:52:03.779Z,5.90
2023-04-24T21:54:29.632Z,5.07
2023-04-24T21:56:55.395Z,3.72
2023-04-24T21:59:21.192Z,4.40
2023-04-24T22:01:47.038Z,6.10
2023-04-24T22:04:13.163Z,4.95
2023-04-24T22:06:39.174Z,3.28
2023-04-24T22:09:05.319Z,5.78
2023-04-24T22:11:31.045Z,4.13
2023-04-24T22:13:56.852Z,5.75
2023-04-24T22:16:23.181Z,5.15
2023-04-24T22:18:49.205Z,5.50
2023-04-24T22:21:15.217Z,5.45
2023-04-24T22:23:41.016Z,4.15
2023-04-24T22:26:06.785Z,6.07
2023-04-24T22:28:32.561Z,4.20
2023-04-24T22:30:58.302Z,8.30
2023-04-24T22:33:24.024Z,4.50
2023-04-24T22:35:49.784Z,3.90
2023-04-24T22:38:15.642Z,8.27
2023-04-24T22:40:41.875Z,3.33
2023-04-24T22:43:07.850Z,3.60
2023-04-24T22:45:33.581Z,2.70
2023-04-24T22:47:59.595Z,6.47
2023-04-24T22:50:25.411Z,4.78
2023-04-24T22:52:54.329Z,5.28
2023-04-24T22:55:20.320Z,5.40
2023-04-24T22:57:47.704Z,4.72
2023-04-24T23:00:13.705Z,3.33
2023-04-24T23:02:40.274Z,4.15
2023-04-24T23:05:06.619Z,3.33
2023-04-24T23:07:32.894Z,2.83
2023-04-24T23:09:58.662Z,6.43
2023-04-24T23:12:24.423Z,7.38
2023-04-24T23:14:50.282Z,6.68
2023-04-24T23:17:16.276Z,8.63
2023-04-24T23:19:41.993Z,5.15
2023-04-24T23:22:07.795Z,4.65
2023-04-24T23:24:33.526Z,3.35
2023-04-24T23:26:59.202Z,5.80
2023-04-24T23:29:25.599Z,5.55
2023-04-24T23:31:51.630Z,5.57
2023-04-24T23:34:19.295Z,3.30
2023-04-24T23:36:48.818Z,3.95
2023-04-24T23:39:14.837Z,3.70
2023-04-24T23:41:43.800Z,6.70
2023-04-24T23:44:10.060Z,6.97
2023-04-24T23:46:45.377Z,5.72
2023-04-24T23:49:11.211Z,3.50
2023-04-24T23:51:37.449Z,4.38
2023-04-24T23:54:03.613Z,6.15
2023-04-24T23:56:29.351Z,4.22
2023-04-24T23:58:55.335Z,11.35
